sensor_id;sensor_type;location;lat;lon;timestamp;pressure;altitude;pressure_sealevel;temperature;humidity
15880;BME280;61999;51.514;14.614;2022-07-29T05:26:14;100098.81;;;13.01;34.33
15880;BME280;61999;51.514;14.614;2022-07-29T05:28:42;100097.72;;;13.13;34.64
15880;BME280;61999;51.514;14.614;2022-07-29T05:31:10;100098.41;;;13.25;34.50
15880;BME280;61999;51.514;14.614;2022-07-29T05:33:38;100101.94;;;13.35;34.58
15880;BME280;61999;51.514;14.614;2022-07-29T05:36:06;100105.56;;;13.44;34.45
15880;BME280;61999;51.514;14.614;2022-07-29T05:38:34;100104.00;;;13.51;34.50
15880;BME280;61999;51.514;14.614;2022-07-29T05:41:03;100103.84;;;13.63;34.38
15880;BME280;61999;51.514;14.614;2022-07-29T05:43:32;100106.50;;;13.63;34.43
15880;BME280;61999;51.514;14.614;2022-07-29T05:46:00;100110.03;;;13.73;34.50
15880;BME280;61999;51.514;14.614;2022-07-29T05:48:28;100106.66;;;13.80;33.91
15880;BME280;61999;51.514;14.614;2022-07-29T05:50:56;100103.00;;;13.91;34.13
15880;BME280;61999;51.514;14.614;2022-07-29T05:53:24;100102.16;;;14.00;33.80
15880;BME280;61999;51.514;14.614;2022-07-29T05:55:52;100106.59;;;14.10;33.83
15880;BME280;61999;51.514;14.614;2022-07-29T05:58:21;100111.03;;;14.19;33.52
15880;BME280;61999;51.514;14.614;2022-07-29T06:00:50;100105.16;;;14.25;33.99
15880;BME280;61999;51.514;14.614;2022-07-29T06:03:19;100104.91;;;14.18;34.50
15880;BME280;61999;51.514;14.614;2022-07-29T06:05:47;100104.34;;;14.15;34.93
15880;BME280;61999;51.514;14.614;2022-07-29T06:08:15;100101.63;;;14.34;35.07
15880;BME280;61999;51.514;14.614;2022-07-29T06:10:43;100095.53;;;14.61;34.11
15880;BME280;61999;51.514;14.614;2022-07-29T06:13:12;100099.66;;;14.73;34.38
15880;BME280;61999;51.514;14.614;2022-07-29T06:15:42;100108.84;;;14.79;34.38
15880;BME280;61999;51.514;14.614;2022-07-29T06:18:12;100101.59;;;14.81;34.16
15880;BME280;61999;51.514;14.614;2022-07-29T06:20:40;100105.50;;;14.77;34.42
15880;BME280;61999;51.514;14.614;2022-07-29T06:23:08;100102.66;;;14.88;34.38
15880;BME280;61999;51.514;14.614;2022-07-29T06:25:36;100109.03;;;14.95;34.08
15880;BME280;61999;51.514;14.614;2022-07-29T06:28:06;100096.72;;;14.94;33.83
15880;BME280;61999;51.514;14.614;2022-07-29T06:30:34;100099.38;;;15.22;33.59
15880;BME280;61999;51.514;14.614;2022-07-29T06:33:02;100107.72;;;15.27;33.46
15880;BME280;61999;51.514;14.614;2022-07-29T06:35:34;100108.56;;;15.28;33.75
15880;BME280;61999;51.514;14.614;2022-07-29T06:38:05;100100.72;;;15.26;33.58
15880;BME280;61999;51.514;14.614;2022-07-29T06:40:33;100105.97;;;15.36;33.94
15880;BME280;61999;51.514;14.614;2022-07-29T06:43:24;100112.28;;;15.53;33.48
15880;BME280;61999;51.514;14.614;2022-07-29T06:45:52;100114.09;;;15.70;33.26
15880;BME280;61999;51.514;14.614;2022-07-29T06:48:20;100117.56;;;15.89;32.64
15880;BME280;61999;51.514;14.614;2022-07-29T06:50:49;100107.75;;;15.89;32.68
15880;BME280;61999;51.514;14.614;2022-07-29T06:53:17;100114.84;;;16.06;32.08
15880;BME280;61999;51.514;14.614;2022-07-29T06:55:45;100118.09;;;16.18;31.84
15880;BME280;61999;51.514;14.614;2022-07-29T06:58:13;100113.75;;;16.17;31.91
15880;BME280;61999;51.514;14.614;2022-07-29T07:00:42;100115.06;;;16.13;32.28
15880;BME280;61999;51.514;14.614;2022-07-29T07:03:11;100128.81;;;16.35;31.99
15880;BME280;61999;51.514;14.614;2022-07-29T07:05:39;100116.88;;;16.39;31.81
15880;BME280;61999;51.514;14.614;2022-07-29T07:08:09;100133.19;;;16.44;31.00
15880;BME280;61999;51.514;14.614;2022-07-29T07:10:37;100126.88;;;16.45;31.54
15880;BME280;61999;51.514;14.614;2022-07-29T07:13:06;100129.50;;;16.37;32.17
15880;BME280;61999;51.514;14.614;2022-07-29T07:15:36;100127.94;;;16.52;31.49
15880;BME280;61999;51.514;14.614;2022-07-29T07:18:05;100130.88;;;16.49;31.49
15880;BME280;61999;51.514;14.614;2022-07-29T07:20:34;100126.00;;;16.62;31.23
15880;BME280;61999;51.514;14.614;2022-07-29T07:23:03;100128.69;;;16.70;31.09
15880;BME280;61999;51.514;14.614;2022-07-29T07:25:33;100135.34;;;16.74;30.54
15880;BME280;61999;51.514;14.614;2022-07-29T07:28:01;100137.16;;;16.66;31.19
15880;BME280;61999;51.514;14.614;2022-07-29T07:30:29;100130.34;;;16.71;31.15
15880;BME280;61999;51.514;14.614;2022-07-29T07:32:57;100126.06;;;16.79;31.53
15880;BME280;61999;51.514;14.614;2022-07-29T07:35:25;100125.22;;;16.78;31.74
15880;BME280;61999;51.514;14.614;2022-07-29T07:37:54;100141.72;;;16.82;31.64
15880;BME280;61999;51.514;14.614;2022-07-29T07:40:23;100134.06;;;16.87;31.40
15880;BME280;61999;51.514;14.614;2022-07-29T07:42:52;100137.78;;;17.02;31.66
15880;BME280;61999;51.514;14.614;2022-07-29T07:45:20;100131.31;;;17.13;31.13
15880;BME280;61999;51.514;14.614;2022-07-29T07:47:48;100137.88;;;17.18;31.82
15880;BME280;61999;51.514;14.614;2022-07-29T07:50:16;100124.53;;;17.27;31.54
15880;BME280;61999;51.514;14.614;2022-07-29T07:52:49;100131.03;;;17.40;31.11
15880;BME280;61999;51.514;14.614;2022-07-29T07:55:18;100129.22;;;17.49;31.58
15880;BME280;61999;51.514;14.614;2022-07-29T07:57:47;100129.91;;;17.59;31.45
15880;BME280;61999;51.514;14.614;2022-07-29T08:00:17;100131.41;;;17.70;31.32
15880;BME280;61999;51.514;14.614;2022-07-29T08:02:45;100129.25;;;17.82;31.21
15880;BME280;61999;51.514;14.614;2022-07-29T08:05:14;100124.91;;;17.89;31.11
15880;BME280;61999;51.514;14.614;2022-07-29T08:07:46;100120.25;;;17.99;30.31
15880;BME280;61999;51.514;14.614;2022-07-29T08:10:16;100131.53;;;18.10;30.29
15880;BME280;61999;51.514;14.614;2022-07-29T08:13:05;100120.16;;;18.24;30.72
15880;BME280;61999;51.514;14.614;2022-07-29T08:15:35;100116.78;;;18.38;30.42
15880;BME280;61999;51.514;14.614;2022-07-29T08:18:03;100119.66;;;18.45;29.95
15880;BME280;61999;51.514;14.614;2022-07-29T08:20:34;100126.09;;;18.59;29.72
15880;BME280;61999;51.514;14.614;2022-07-29T08:23:02;100127.63;;;18.53;30.15
15880;BME280;61999;51.514;14.614;2022-07-29T08:25:31;100121.72;;;18.66;29.85
15880;BME280;61999;51.514;14.614;2022-07-29T08:27:59;100122.69;;;18.73;29.77
15880;BME280;61999;51.514;14.614;2022-07-29T08:30:29;100123.66;;;18.80;30.06
15880;BME280;61999;51.514;14.614;2022-07-29T08:33:00;100123.38;;;18.67;29.75
15880;BME280;61999;51.514;14.614;2022-07-29T08:35:29;100122.09;;;18.94;29.51
15880;BME280;61999;51.514;14.614;2022-07-29T08:38:00;100124.56;;;19.04;29.35
15880;BME280;61999;51.514;14.614;2022-07-29T08:40:30;100119.53;;;19.01;29.60
15880;BME280;61999;51.514;14.614;2022-07-29T08:43:03;100115.63;;;18.88;29.89
15880;BME280;61999;51.514;14.614;2022-07-29T08:45:41;100123.09;;;18.93;30.08
15880;BME280;61999;51.514;14.614;2022-07-29T08:48:13;100126.19;;;19.13;29.36
15880;BME280;61999;51.514;14.614;2022-07-29T08:50:43;100123.41;;;19.29;29.39
15880;BME280;61999;51.514;14.614;2022-07-29T08:53:14;100121.84;;;19.58;29.62
15880;BME280;61999;51.514;14.614;2022-07-29T08:55:44;100125.06;;;19.76;29.57
15880;BME280;61999;51.514;14.614;2022-07-29T08:58:14;100125.47;;;19.88;29.37
15880;BME280;61999;51.514;14.614;2022-07-29T09:00:45;100122.72;;;19.96;28.96
15880;BME280;61999;51.514;14.614;2022-07-29T09:03:19;100122.44;;;20.06;29.09
15880;BME280;61999;51.514;14.614;2022-07-29T09:05:48;100124.00;;;20.15;28.92
15880;BME280;61999;51.514;14.614;2022-07-29T09:08:17;100119.63;;;20.22;28.81
15880;BME280;61999;51.514;14.614;2022-07-29T09:10:45;100111.59;;;20.37;28.68
15880;BME280;61999;51.514;14.614;2022-07-29T09:13:13;100114.34;;;20.44;28.76
15880;BME280;61999;51.514;14.614;2022-07-29T09:15:41;100115.00;;;20.46;28.78
15880;BME280;61999;51.514;14.614;2022-07-29T09:18:09;100110.19;;;20.26;28.75
15880;BME280;61999;51.514;14.614;2022-07-29T09:20:38;100109.09;;;20.36;28.72
15880;BME280;61999;51.514;14.614;2022-07-29T09:23:36;100114.06;;;20.39;28.46
15880;BME280;61999;51.514;14.614;2022-07-29T09:26:05;100117.47;;;20.47;29.00
15880;BME280;61999;51.514;14.614;2022-07-29T09:28:41;100108.97;;;20.59;28.31
15880;BME280;61999;51.514;14.614;2022-07-29T09:31:09;100111.09;;;20.63;28.77
15880;BME280;61999;51.514;14.614;2022-07-29T09:33:37;100108.31;;;20.71;28.83
15880;BME280;61999;51.514;14.614;2022-07-29T09:36:10;100106.75;;;20.62;28.62
15880;BME280;61999;51.514;14.614;2022-07-29T09:38:38;100110.16;;;20.56;28.85
15880;BME280;61999;51.514;14.614;2022-07-29T09:41:06;100106.97;;;20.46;28.93
15880;BME280;61999;51.514;14.614;2022-07-29T09:43:36;100107.06;;;20.38;28.79
15880;BME280;61999;51.514;14.614;2022-07-29T09:46:10;100106.88;;;20.54;28.63
15880;BME280;61999;51.514;14.614;2022-07-29T09:48:39;100103.09;;;20.48;28.42
15880;BME280;61999;51.514;14.614;2022-07-29T09:51:18;100107.38;;;20.64;28.33
15880;BME280;61999;51.514;14.614;2022-07-29T09:53:49;100092.25;;;20.42;28.24
15880;BME280;61999;51.514;14.614;2022-07-29T09:56:17;100100.66;;;20.39;28.13
15880;BME280;61999;51.514;14.614;2022-07-29T09:58:45;100102.00;;;20.28;28.30
15880;BME280;61999;51.514;14.614;2022-07-29T10:01:13;100096.69;;;20.05;28.60
15880;BME280;61999;51.514;14.614;2022-07-29T10:03:51;100092.84;;;20.22;28.52
15880;BME280;61999;51.514;14.614;2022-07-29T10:06:21;100082.47;;;20.19;28.62
15880;BME280;61999;51.514;14.614;2022-07-29T10:08:49;100088.56;;;20.13;28.84
15880;BME280;61999;51.514;14.614;2022-07-29T10:11:18;100090.53;;;20.34;27.92
15880;BME280;61999;51.514;14.614;2022-07-29T10:13:48;100080.09;;;20.39;28.39
15880;BME280;61999;51.514;14.614;2022-07-29T10:16:17;100090.94;;;20.67;27.80
15880;BME280;61999;51.514;14.614;2022-07-29T10:18:45;100082.78;;;20.75;27.90
15880;BME280;61999;51.514;14.614;2022-07-29T10:21:14;100086.03;;;20.86;28.04
15880;BME280;61999;51.514;14.614;2022-07-29T10:23:44;100087.78;;;21.15;27.52
15880;BME280;61999;51.514;14.614;2022-07-29T10:26:13;100069.75;;;21.30;27.67
15880;BME280;61999;51.514;14.614;2022-07-29T10:28:42;100069.97;;;21.50;27.25
15880;BME280;61999;51.514;14.614;2022-07-29T10:31:28;100067.97;;;21.87;26.75
15880;BME280;61999;51.514;14.614;2022-07-29T10:34:07;100066.72;;;22.52;25.81
15880;BME280;61999;51.514;14.614;2022-07-29T10:36:52;100070.34;;;22.93;25.45
15880;BME280;61999;51.514;14.614;2022-07-29T10:39:41;100065.88;;;23.33;24.58
15880;BME280;61999;51.514;14.614;2022-07-29T10:42:18;100063.00;;;23.28;25.31
15880;BME280;61999;51.514;14.614;2022-07-29T10:44:49;100058.84;;;23.72;25.30
15880;BME280;61999;51.514;14.614;2022-07-29T10:47:22;100072.06;;;24.07;23.82
15880;BME280;61999;51.514;14.614;2022-07-29T10:49:58;100056.19;;;24.89;23.58
15880;BME280;61999;51.514;14.614;2022-07-29T10:52:55;100058.94;;;25.39;22.87
15880;BME280;61999;51.514;14.614;2022-07-29T10:55:33;100045.78;;;25.74;21.62
15880;BME280;61999;51.514;14.614;2022-07-29T10:58:15;100041.38;;;26.35;21.93
15880;BME280;61999;51.514;14.614;2022-07-29T11:00:44;100047.31;;;26.74;21.75
15880;BME280;61999;51.514;14.614;2022-07-29T11:03:44;100037.59;;;27.74;20.35
15880;BME280;61999;51.514;14.614;2022-07-29T11:06:14;100038.44;;;27.98;20.11
15880;BME280;61999;51.514;14.614;2022-07-29T11:08:42;100039.81;;;28.12;18.76
15880;BME280;61999;51.514;14.614;2022-07-29T11:11:35;100047.81;;;28.19;18.80
15880;BME280;61999;51.514;14.614;2022-07-29T11:14:07;100049.41;;;28.72;18.65
15880;BME280;61999;51.514;14.614;2022-07-29T11:17:00;100037.31;;;29.42;17.47
15880;BME280;61999;51.514;14.614;2022-07-29T11:19:30;100039.94;;;29.37;17.63
15880;BME280;61999;51.514;14.614;2022-07-29T11:21:58;100053.44;;;29.49;17.69
15880;BME280;61999;51.514;14.614;2022-07-29T11:24:29;100050.97;;;29.47;16.74
15880;BME280;61999;51.514;14.614;2022-07-29T11:27:12;100055.69;;;30.13;15.96
15880;BME280;61999;51.514;14.614;2022-07-29T11:29:53;100043.69;;;30.30;15.89
15880;BME280;61999;51.514;14.614;2022-07-29T11:32:24;100039.06;;;30.31;15.79
15880;BME280;61999;51.514;14.614;2022-07-29T11:35:15;100047.44;;;30.51;16.62
15880;BME280;61999;51.514;14.614;2022-07-29T11:37:45;100030.38;;;29.51;17.03
15880;BME280;61999;51.514;14.614;2022-07-29T11:40:16;100033.13;;;29.73;16.98
15880;BME280;61999;51.514;14.614;2022-07-29T11:42:50;100042.25;;;30.23;15.93
15880;BME280;61999;51.514;14.614;2022-07-29T11:45:25;100044.63;;;29.97;15.93
15880;BME280;61999;51.514;14.614;2022-07-29T11:47:59;100036.16;;;29.38;16.18
15880;BME280;61999;51.514;14.614;2022-07-29T11:50:36;100023.97;;;29.07;16.81
15880;BME280;61999;51.514;14.614;2022-07-29T11:53:13;100019.94;;;29.09;16.51
15880;BME280;61999;51.514;14.614;2022-07-29T11:55:42;100016.03;;;29.56;17.02
15880;BME280;61999;51.514;14.614;2022-07-29T11:58:11;100008.78;;;29.61;16.57
15880;BME280;61999;51.514;14.614;2022-07-29T12:00:40;100011.34;;;29.17;16.55
15880;BME280;61999;51.514;14.614;2022-07-29T12:03:10;100009.50;;;29.35;16.19
15880;BME280;61999;51.514;14.614;2022-07-29T12:05:41;100008.72;;;29.56;16.67
15880;BME280;61999;51.514;14.614;2022-07-29T12:08:14;100001.16;;;30.02;16.73
15880;BME280;61999;51.514;14.614;2022-07-29T12:10:43;100001.94;;;30.20;16.45
15880;BME280;61999;51.514;14.614;2022-07-29T12:13:15;100002.94;;;30.14;16.16
15880;BME280;61999;51.514;14.614;2022-07-29T12:15:52;100011.16;;;29.97;16.50
15880;BME280;61999;51.514;14.614;2022-07-29T12:18:21;100003.47;;;29.16;16.59
15880;BME280;61999;51.514;14.614;2022-07-29T12:20:57;100010.59;;;28.43;17.56
15880;BME280;61999;51.514;14.614;2022-07-29T12:23:25;100009.53;;;28.44;17.05
15880;BME280;61999;51.514;14.614;2022-07-29T12:25:53;100003.59;;;28.75;17.06
15880;BME280;61999;51.514;14.614;2022-07-29T12:28:22;99996.63;;;29.47;16.24
15880;BME280;61999;51.514;14.614;2022-07-29T12:30:51;100002.13;;;30.35;16.33
15880;BME280;61999;51.514;14.614;2022-07-29T12:33:22;99992.81;;;30.31;16.11
15880;BME280;61999;51.514;14.614;2022-07-29T12:35:53;100000.13;;;30.52;16.13
15880;BME280;61999;51.514;14.614;2022-07-29T12:38:33;99989.34;;;31.32;15.54
15880;BME280;61999;51.514;14.614;2022-07-29T12:41:02;99993.13;;;32.37;14.83
15880;BME280;61999;51.514;14.614;2022-07-29T12:43:33;99991.00;;;33.26;14.56
15880;BME280;61999;51.514;14.614;2022-07-29T12:46:13;99988.81;;;33.23;14.13
15880;BME280;61999;51.514;14.614;2022-07-29T12:48:43;99991.28;;;32.93;13.73
15880;BME280;61999;51.514;14.614;2022-07-29T12:51:11;99991.03;;;32.80;14.03
15880;BME280;61999;51.514;14.614;2022-07-29T12:53:41;99993.13;;;33.49;14.39
15880;BME280;61999;51.514;14.614;2022-07-29T12:56:15;99985.97;;;33.69;13.67
15880;BME280;61999;51.514;14.614;2022-07-29T12:59:13;99993.47;;;32.86;14.15
15880;BME280;61999;51.514;14.614;2022-07-29T13:01:41;99984.38;;;33.57;13.31
15880;BME280;61999;51.514;14.614;2022-07-29T13:04:09;99980.88;;;34.06;12.83
15880;BME280;61999;51.514;14.614;2022-07-29T13:06:40;99985.94;;;34.34;13.32
15880;BME280;61999;51.514;14.614;2022-07-29T13:09:12;99974.38;;;34.81;12.77
15880;BME280;61999;51.514;14.614;2022-07-29T13:11:42;99972.66;;;34.90;12.02
15880;BME280;61999;51.514;14.614;2022-07-29T13:14:32;99964.31;;;34.32;12.81
15880;BME280;61999;51.514;14.614;2022-07-29T13:17:05;99962.94;;;35.03;11.79
15880;BME280;61999;51.514;14.614;2022-07-29T13:19:36;99955.69;;;35.41;12.37
15880;BME280;61999;51.514;14.614;2022-07-29T13:22:04;99962.66;;;36.01;12.15
15880;BME280;61999;51.514;14.614;2022-07-29T13:24:32;99956.56;;;36.42;11.24
15880;BME280;61999;51.514;14.614;2022-07-29T13:27:01;99953.44;;;36.48;11.35
15880;BME280;61999;51.514;14.614;2022-07-29T13:29:30;99948.25;;;36.47;11.53
15880;BME280;61999;51.514;14.614;2022-07-29T13:31:59;99951.94;;;35.80;11.78
15880;BME280;61999;51.514;14.614;2022-07-29T13:34:27;99954.47;;;36.71;11.19
15880;BME280;61999;51.514;14.614;2022-07-29T13:36:55;99953.34;;;37.05;10.90
15880;BME280;61999;51.514;14.614;2022-07-29T13:39:23;99947.19;;;36.94;11.10
15880;BME280;61999;51.514;14.614;2022-07-29T13:41:51;99937.72;;;37.01;10.97
15880;BME280;61999;51.514;14.614;2022-07-29T13:44:19;99943.13;;;36.59;11.41
15880;BME280;61999;51.514;14.614;2022-07-29T13:46:48;99939.59;;;36.02;11.48
15880;BME280;61999;51.514;14.614;2022-07-29T13:49:16;99932.34;;;35.68;11.60
15880;BME280;61999;51.514;14.614;2022-07-29T13:51:44;99938.88;;;35.24;12.20
15880;BME280;61999;51.514;14.614;2022-07-29T13:54:12;99937.59;;;35.40;11.49
15880;BME280;61999;51.514;14.614;2022-07-29T13:56:40;99933.19;;;34.91;11.93
15880;BME280;61999;51.514;14.614;2022-07-29T13:59:08;99938.44;;;33.59;13.14
15880;BME280;61999;51.514;14.614;2022-07-29T14:01:36;99934.59;;;33.60;13.28
15880;BME280;61999;51.514;14.614;2022-07-29T14:04:05;99930.84;;;33.31;13.59
15880;BME280;61999;51.514;14.614;2022-07-29T14:06:34;99934.44;;;33.91;13.26
15880;BME280;61999;51.514;14.614;2022-07-29T14:09:03;99921.66;;;34.26;12.74
15880;BME280;61999;51.514;14.614;2022-07-29T14:11:32;99930.41;;;34.28;12.75
15880;BME280;61999;51.514;14.614;2022-07-29T14:14:01;99918.25;;;34.05;12.94
15880;BME280;61999;51.514;14.614;2022-07-29T14:16:29;99923.31;;;33.72;13.04
15880;BME280;61999;51.514;14.614;2022-07-29T14:18:57;99904.94;;;33.08;13.57
15880;BME280;61999;51.514;14.614;2022-07-29T14:21:26;99902.47;;;33.06;13.63
15880;BME280;61999;51.514;14.614;2022-07-29T14:23:54;99907.97;;;32.96;13.68
15880;BME280;61999;51.514;14.614;2022-07-29T14:26:22;99903.56;;;32.28;13.67
15880;BME280;61999;51.514;14.614;2022-07-29T14:28:50;99894.28;;;32.19;13.38
15880;BME280;61999;51.514;14.614;2022-07-29T14:31:18;99904.66;;;32.22;13.60
15880;BME280;61999;51.514;14.614;2022-07-29T14:33:46;99908.97;;;31.98;13.89
15880;BME280;61999;51.514;14.614;2022-07-29T14:36:14;99901.66;;;32.19;13.84
15880;BME280;61999;51.514;14.614;2022-07-29T14:38:44;99895.94;;;32.30;13.92
15880;BME280;61999;51.514;14.614;2022-07-29T14:41:12;99902.38;;;31.78;14.22
15880;BME280;61999;51.514;14.614;2022-07-29T14:43:40;99906.25;;;31.30;14.38
15880;BME280;61999;51.514;14.614;2022-07-29T14:46:08;99897.91;;;31.52;13.87
15880;BME280;61999;51.514;14.614;2022-07-29T14:48:36;99903.28;;;31.47;13.83
15880;BME280;61999;51.514;14.614;2022-07-29T14:51:04;99902.56;;;31.09;14.70
15880;BME280;61999;51.514;14.614;2022-07-29T14:53:41;99904.41;;;31.03;14.25
15880;BME280;61999;51.514;14.614;2022-07-29T14:56:13;99894.69;;;30.70;13.81
15880;BME280;61999;51.514;14.614;2022-07-29T14:59:00;99890.00;;;30.33;14.18
15880;BME280;61999;51.514;14.614;2022-07-29T15:01:29;99893.09;;;29.71;15.03
15880;BME280;61999;51.514;14.614;2022-07-29T15:03:56;99900.44;;;29.48;14.96
15880;BME280;61999;51.514;14.614;2022-07-29T15:06:25;99896.84;;;29.04;15.22
15880;BME280;61999;51.514;14.614;2022-07-29T15:08:53;99897.84;;;28.81;14.99
15880;BME280;61999;51.514;14.614;2022-07-29T15:11:22;99903.56;;;28.05;15.86
15880;BME280;61999;51.514;14.614;2022-07-29T15:13:50;99898.25;;;27.70;17.52
15880;BME280;61999;51.514;14.614;2022-07-29T15:16:18;99904.66;;;27.28;17.25
15880;BME280;61999;51.514;14.614;2022-07-29T15:18:46;99894.66;;;27.40;16.53
15880;BME280;61999;51.514;14.614;2022-07-29T15:21:14;99904.53;;;27.35;16.81
15880;BME280;61999;51.514;14.614;2022-07-29T15:23:43;99903.81;;;27.39;17.22
15880;BME280;61999;51.514;14.614;2022-07-29T15:26:11;99898.06;;;27.24;17.32
15880;BME280;61999;51.514;14.614;2022-07-29T15:28:40;99890.28;;;27.39;17.24
15880;BME280;61999;51.514;14.614;2022-07-29T15:31:08;99896.03;;;28.24;17.25
15880;BME280;61999;51.514;14.614;2022-07-29T15:33:36;99891.59;;;28.35;17.00
15880;BME280;61999;51.514;14.614;2022-07-29T15:36:05;99888.03;;;28.46;16.92
15880;BME280;61999;51.514;14.614;2022-07-29T15:38:33;99890.25;;;28.20;16.71
15880;BME280;61999;51.514;14.614;2022-07-29T15:41:01;99887.00;;;28.18;16.79
15880;BME280;61999;51.514;14.614;2022-07-29T15:43:29;99879.41;;;28.03;17.23
15880;BME280;61999;51.514;14.614;2022-07-29T15:45:58;99883.22;;;28.36;16.58
15880;BME280;61999;51.514;14.614;2022-07-29T15:48:44;99881.25;;;28.31;17.18
15880;BME280;61999;51.514;14.614;2022-07-29T15:51:13;99875.66;;;27.93;17.73
15880;BME280;61999;51.514;14.614;2022-07-29T15:53:41;99885.63;;;27.75;18.29
15880;BME280;61999;51.514;14.614;2022-07-29T15:56:09;99882.94;;;28.04;17.71
15880;BME280;61999;51.514;14.614;2022-07-29T15:58:37;99884.41;;;27.95;17.26
15880;BME280;61999;51.514;14.614;2022-07-29T16:01:06;99886.34;;;28.28;17.05
15880;BME280;61999;51.514;14.614;2022-07-29T16:03:34;99875.69;;;28.89;16.56
15880;BME280;61999;51.514;14.614;2022-07-29T16:06:02;99869.50;;;29.49;15.95
15880;BME280;61999;51.514;14.614;2022-07-29T16:08:31;99869.00;;;29.52;16.25
15880;BME280;61999;51.514;14.614;2022-07-29T16:10:59;99871.72;;;29.52;15.56
15880;BME280;61999;51.514;14.614;2022-07-29T16:13:27;99867.13;;;28.97;16.40
15880;BME280;61999;51.514;14.614;2022-07-29T16:15:55;99861.97;;;28.45;16.66
15880;BME280;61999;51.514;14.614;2022-07-29T16:18:24;99861.34;;;28.09;16.97
15880;BME280;61999;51.514;14.614;2022-07-29T16:20:52;99861.41;;;27.57;17.63
15880;BME280;61999;51.514;14.614;2022-07-29T16:23:20;99853.00;;;27.18;18.11
15880;BME280;61999;51.514;14.614;2022-07-29T16:25:50;99862.41;;;26.92;17.82
15880;BME280;61999;51.514;14.614;2022-07-29T16:28:26;99851.34;;;26.58;19.02
15880;BME280;61999;51.514;14.614;2022-07-29T16:30:55;99853.31;;;26.63;18.53
15880;BME280;61999;51.514;14.614;2022-07-29T16:33:24;99851.84;;;27.02;18.33
15880;BME280;61999;51.514;14.614;2022-07-29T16:35:52;99850.34;;;27.58;17.92
15880;BME280;61999;51.514;14.614;2022-07-29T16:38:20;99847.59;;;27.70;18.21
15880;BME280;61999;51.514;14.614;2022-07-29T16:40:49;99846.66;;;27.93;17.38
15880;BME280;61999;51.514;14.614;2022-07-29T16:43:17;99853.97;;;28.21;17.22
15880;BME280;61999;51.514;14.614;2022-07-29T16:45:45;99854.47;;;28.18;17.84
15880;BME280;61999;51.514;14.614;2022-07-29T16:48:14;99848.19;;;28.35;17.61
15880;BME280;61999;51.514;14.614;2022-07-29T16:50:44;99845.53;;;28.06;17.69
15880;BME280;61999;51.514;14.614;2022-07-29T16:53:12;99839.88;;;27.38;18.42
15880;BME280;61999;51.514;14.614;2022-07-29T16:55:40;99846.53;;;27.19;18.74
15880;BME280;61999;51.514;14.614;2022-07-29T16:58:10;99842.16;;;27.30;18.50
15880;BME280;61999;51.514;14.614;2022-07-29T17:00:38;99844.88;;;26.94;18.86
15880;BME280;61999;51.514;14.614;2022-07-29T17:03:06;99847.09;;;26.62;19.17
15880;BME280;61999;51.514;14.614;2022-07-29T17:05:35;99836.66;;;26.12;19.64
15880;BME280;61999;51.514;14.614;2022-07-29T17:08:04;99836.53;;;25.58;20.15
15880;BME280;61999;51.514;14.614;2022-07-29T17:10:33;99835.22;;;25.42;20.68
15880;BME280;61999;51.514;14.614;2022-07-29T17:13:01;99832.41;;;25.19;20.39
15880;BME280;61999;51.514;14.614;2022-07-29T17:15:29;99833.81;;;25.03;20.69
15880;BME280;61999;51.514;14.614;2022-07-29T17:17:57;99826.16;;;25.00;20.64
15880;BME280;61999;51.514;14.614;2022-07-29T17:20:26;99828.44;;;25.22;19.84
15880;BME280;61999;51.514;14.614;2022-07-29T17:22:54;99823.75;;;24.92;20.95
15880;BME280;61999;51.514;14.614;2022-07-29T17:25:24;99828.09;;;24.93;20.45
15880;BME280;61999;51.514;14.614;2022-07-29T17:27:52;99823.59;;;24.87;20.88
15880;BME280;61999;51.514;14.614;2022-07-29T17:30:24;99834.03;;;24.76;20.86
15880;BME280;61999;51.514;14.614;2022-07-29T17:32:52;99830.78;;;24.74;20.87
15880;BME280;61999;51.514;14.614;2022-07-29T17:35:21;99834.31;;;24.43;21.49
15880;BME280;61999;51.514;14.614;2022-07-29T17:38:06;99832.53;;;24.05;21.37
15880;BME280;61999;51.514;14.614;2022-07-29T17:40:36;99842.63;;;24.10;21.86
15880;BME280;61999;51.514;14.614;2022-07-29T17:43:04;99843.13;;;23.94;21.91
15880;BME280;61999;51.514;14.614;2022-07-29T17:45:34;99846.56;;;23.69;22.23
15880;BME280;61999;51.514;14.614;2022-07-29T17:48:03;99848.69;;;23.54;22.51
15880;BME280;61999;51.514;14.614;2022-07-29T17:50:31;99852.69;;;23.31;23.31
15880;BME280;61999;51.514;14.614;2022-07-29T17:52:59;99855.22;;;23.13;23.40
15880;BME280;61999;51.514;14.614;2022-07-29T17:55:28;99853.78;;;23.04;23.05
15880;BME280;61999;51.514;14.614;2022-07-29T17:57:57;99858.53;;;23.02;23.40
15880;BME280;61999;51.514;14.614;2022-07-29T18:00:25;99860.22;;;22.83;22.95
15880;BME280;61999;51.514;14.614;2022-07-29T18:02:53;99861.66;;;22.72;23.02
15880;BME280;61999;51.514;14.614;2022-07-29T18:05:21;99865.59;;;22.63;23.29
15880;BME280;61999;51.514;14.614;2022-07-29T18:07:49;99860.63;;;22.66;23.31
15880;BME280;61999;51.514;14.614;2022-07-29T18:10:17;99863.91;;;22.62;23.48
15880;BME280;61999;51.514;14.614;2022-07-29T18:12:45;99869.28;;;22.55;23.13
15880;BME280;61999;51.514;14.614;2022-07-29T18:15:15;99865.09;;;22.33;24.11
15880;BME280;61999;51.514;14.614;2022-07-29T18:17:43;99858.47;;;22.08;24.91
15880;BME280;61999;51.514;14.614;2022-07-29T18:20:11;99859.88;;;22.04;24.82
15880;BME280;61999;51.514;14.614;2022-07-29T18:22:40;99849.56;;;22.01;24.78
15880;BME280;61999;51.514;14.614;2022-07-29T18:25:08;99858.41;;;21.95;24.69
15880;BME280;61999;51.514;14.614;2022-07-29T18:27:37;99864.56;;;21.89;24.58